Bookmark and Share
Track history (hours):
 

Sky Ever

Last reported at 2014-Apr-16 16:22 UTC. Time now 2014-Apr-16 19:18 UTC.
Position N 34°39' E 135°28'.

Length 76 m; draft 5.5 m.

Type: Cargo ship. MMSI: 441751000.

NotesDate/timePositionNaut miles runAvg speedWind from/ knotsBaromVisibWave heightAir tempDewpointWater temp
2014-Apr-16 16:22N 34°39' E 135°28'0 0.0
2014-Apr-16 10:16N 34°39' E 135°28'0 0.0
2014-Apr-15 23:28N 34°39' E 135°28'5 5.0
2014-Apr-15 22:33N 34°37' E 135°22'0 0.1
2014-Apr-15 21:32N 34°37' E 135°23'0 0.0
2014-Apr-15 20:32N 34°37' E 135°23'0 0.0
2014-Apr-15 19:32N 34°37' E 135°23'0 0.0
2014-Apr-15 18:32N 34°37' E 135°23'0 0.0
2014-Apr-15 17:32N 34°37' E 135°23'0 0.0
2014-Apr-15 16:32N 34°37' E 135°23'0 0.0
2014-Apr-15 15:32N 34°37' E 135°23'0 0.0
2014-Apr-15 12:32N 34°37' E 135°23'0 0.0
2014-Apr-15 10:32N 34°37' E 135°23'0 0.0
2014-Apr-15 09:32N 34°37' E 135°23'1 0.3
2014-Apr-15 06:34N 34°38' E 135°23'2 0.7
2014-Apr-15 03:33N 34°37' E 135°26'0 0.0
2014-Apr-15 00:33N 34°37' E 135°26'0 0.0
2014-Apr-14 23:33N 34°37' E 135°26'0 0.0
2014-Apr-14 22:33N 34°37' E 135°26'3 1.7
2014-Apr-14 20:31N 34°37' E 135°22'0 0.0
2014-Apr-14 19:31N 34°37' E 135°22'0 0.0
2014-Apr-14 15:31N 34°37' E 135°22'0 0.0
2014-Apr-14 14:31N 34°37' E 135°22'0 0.0
2014-Apr-14 11:31N 34°37' E 135°22'0 0.0
2014-Apr-14 10:31N 34°37' E 135°22'0 0.0
2014-Apr-14 09:30N 34°37' E 135°22'0 0.0
2014-Apr-14 08:30N 34°37' E 135°22'0 0.0
2014-Apr-14 07:30N 34°37' E 135°22'0 0.0
2014-Apr-14 06:30N 34°37' E 135°22'0 0.0
2014-Apr-13 22:30N 34°37' E 135°22'0 0.0
2014-Apr-13 21:30N 34°37' E 135°22'0 0.0
2014-Apr-13 20:30N 34°37' E 135°22'0 0.0
2014-Apr-13 19:12N 34°37' E 135°22'0 0.0
2014-Apr-13 18:30N 34°37' E 135°22'0 0.0
2014-Apr-13 17:30N 34°37' E 135°22'0 0.0
2014-Apr-13 16:24N 34°37' E 135°22'0 0.0
2014-Apr-13 15:24N 34°37' E 135°22'0 0.0
2014-Apr-13 14:30N 34°37' E 135°22'0 0.1
2014-Apr-13 13:24N 34°37' E 135°22'0 0.0
2014-Apr-13 12:30N 34°37' E 135°22'0 0.0
2014-Apr-13 11:30N 34°37' E 135°22'0 0.0
2014-Apr-13 10:30N 34°37' E 135°22'0 0.0
2014-Apr-13 09:30N 34°37' E 135°22'0 0.0
2014-Apr-13 08:06N 34°37' E 135°22'0 0.0
2014-Apr-13 07:30N 34°37' E 135°22'0 0.0
2014-Apr-13 06:30N 34°37' E 135°22'0 0.1
2014-Apr-13 05:24N 34°37' E 135°22'0 0.0
2014-Apr-13 04:30N 34°37' E 135°22'0 0.0
2014-Apr-13 03:24N 34°37' E 135°22'0 0.0
2014-Apr-13 02:30N 34°37' E 135°22'0 0.0
2014-Apr-13 01:30N 34°37' E 135°22'0 0.0
2014-Apr-13 00:24N 34°37' E 135°22'0 0.0
2014-Apr-12 23:30N 34°37' E 135°22'0 0.0
2014-Apr-12 22:29N 34°37' E 135°22'0 0.0
2014-Apr-12 21:29N 34°37' E 135°22'0 0.0
2014-Apr-12 20:29N 34°37' E 135°22'0 0.0
2014-Apr-12 19:29N 34°37' E 135°22'0 0.0
2014-Apr-12 18:29N 34°37' E 135°22'0 0.0
2014-Apr-12 17:29N 34°37' E 135°22'0 0.0
2014-Apr-12 16:23N 34°37' E 135°22'0 0.0
2014-Apr-12 15:29N 34°37' E 135°22'0 0.0
2014-Apr-12 14:29N 34°37' E 135°22'0 0.0
2014-Apr-12 13:33N 34°37' E 135°22'0 0.0
2014-Apr-12 12:28N 34°37' E 135°22'0 0.0
2014-Apr-12 11:28N 34°37' E 135°22'0 0.0
2014-Apr-12 10:16N 34°37' E 135°22'0 0.0
2014-Apr-12 09:22N 34°37' E 135°22'0 0.1
2014-Apr-12 08:28N 34°37' E 135°22'0 0.0
2014-Apr-12 07:22N 34°37' E 135°22'0 0.0
2014-Apr-12 06:28N 34°37' E 135°22'0 0.0
2014-Apr-12 05:16N 34°37' E 135°22'0 0.0
2014-Apr-12 04:28N 34°37' E 135°22'0 0.0
2014-Apr-12 03:10N 34°37' E 135°22'0 0.1
2014-Apr-12 02:22N 34°37' E 135°22'0 0.0
2014-Apr-12 01:22N 34°37' E 135°22'0 0.0
2014-Apr-12 00:28N 34°37' E 135°22'0 0.0
2014-Apr-11 23:28N 34°37' E 135°22'0 0.0
2014-Apr-11 22:16N 34°37' E 135°22'0 0.0
2014-Apr-11 21:28N 34°37' E 135°22'0 0.0
2014-Apr-11 20:22N 34°37' E 135°22'5 5.9
2014-Apr-11 19:32N 34°36' E 135°16'9 9.1
2014-Apr-11 18:33N 34°35' E 135°05'11 9.0
2014-Apr-11 17:22N 34°35' E 134°52'  

Dump ship's entire track history

sailing weather and tide predictions

Sky Ever — DSQX9 — position and weather